createdAt,value
2023-05-10T00:00:19.958Z,2.35
2023-05-10T00:03:48.120Z,2.47
2023-05-10T00:07:12.412Z,2.50
2023-05-10T00:10:26.219Z,2.40
2023-05-10T00:13:49.690Z,2.60
2023-05-10T00:17:12.278Z,2.50
2023-05-10T00:20:25.403Z,2.25
2023-05-10T00:23:44.867Z,2.40
2023-05-10T00:30:55.633Z,2.23
2023-05-10T00:34:38.136Z,2.60
2023-05-10T00:38:07.416Z,2.35
2023-05-10T00:41:21.299Z,2.40
2023-05-10T00:44:48.676Z,2.50
2023-05-10T00:48:04.134Z,2.37
2023-05-10T00:51:23.521Z,2.95
2023-05-10T00:55:05.582Z,2.75
2023-05-10T00:59:01.156Z,2.58
2023-05-10T01:02:10.509Z,2.50
2023-05-10T01:05:19.765Z,2.50
2023-05-10T01:12:10.626Z,2.62
2023-05-10T01:19:53.399Z,2.85
2023-05-10T01:23:19.307Z,2.80
2023-05-10T01:26:54.804Z,2.45
2023-05-10T01:30:42.560Z,2.60
2023-05-10T01:34:47.598Z,2.53
2023-05-10T01:39:07.544Z,2.65
2023-05-10T01:42:36.954Z,2.67
2023-05-10T01:46:18.573Z,2.60
2023-05-10T01:49:46.148Z,2.87
2023-05-10T01:53:22.289Z,2.67
2023-05-10T01:56:57.797Z,3.05
2023-05-10T02:00:55.607Z,2.30
2023-05-10T02:04:54.432Z,2.50
2023-05-10T02:08:36.150Z,2.80
2023-05-10T02:11:59.348Z,2.80
2023-05-10T02:15:35.175Z,2.70
2023-05-10T02:23:20.172Z,2.90
2023-05-10T02:26:46.110Z,2.95
2023-05-10T02:33:48.613Z,3.80
2023-05-10T02:37:07.819Z,2.93
2023-05-10T02:41:03.479Z,3.15
2023-05-10T02:44:34.024Z,2.78
2023-05-10T02:47:47.398Z,3.05
2023-05-10T02:51:16.067Z,2.90
2023-05-10T02:54:53.751Z,3.10
2023-05-10T02:58:21.698Z,2.87
2023-05-10T03:01:34.705Z,3.25
2023-05-10T03:04:52.214Z,3.78
2023-05-10T03:08:38.284Z,3.07
2023-05-10T03:11:56.876Z,3.00
2023-05-10T03:15:57.624Z,3.00
2023-05-10T03:19:44.800Z,2.85
2023-05-10T03:33:28.475Z,3.40
2023-05-10T03:37:08.537Z,3.60
2023-05-10T03:40:41.067Z,3.33
2023-05-10T03:44:09.022Z,2.83
2023-05-10T03:47:23.684Z,3.00
2023-05-10T03:54:36.615Z,3.05
2023-05-10T03:58:21.304Z,2.85
2023-05-10T04:01:55.985Z,3.97
2023-05-10T04:05:27.894Z,2.83
2023-05-10T04:09:05.439Z,2.80
2023-05-10T04:12:13.488Z,3.12
2023-05-10T04:15:25.126Z,3.53
2023-05-10T04:18:47.645Z,3.50
2023-05-10T04:25:50.441Z,3.55
2023-05-10T04:29:21.603Z,3.20
2023-05-10T04:33:04.346Z,3.12
2023-05-10T04:36:42.120Z,3.33
2023-05-10T04:40:01.368Z,3.07
2023-05-10T04:43:13.058Z,3.45
2023-05-10T04:46:32.196Z,2.75
2023-05-10T04:49:57.214Z,3.08
2023-05-10T04:53:44.665Z,3.10
2023-05-10T05:01:02.364Z,2.78
2023-05-10T05:04:29.536Z,2.90
2023-05-10T05:07:40.449Z,3.05
2023-05-10T05:11:06.356Z,3.03
2023-05-10T05:14:13.995Z,3.47
2023-05-10T05:17:20.906Z,3.22
2023-05-10T05:20:37.872Z,3.05
2023-05-10T05:23:45.373Z,3.20
2023-05-10T05:26:56.075Z,2.90
2023-05-10T05:30:02.299Z,3.00
2023-05-10T05:33:22.861Z,3.08
2023-05-10T05:36:30.224Z,2.75
2023-05-10T05:40:00.775Z,2.72
2023-05-10T05:43:07.358Z,3.67
2023-05-10T05:46:11.214Z,2.97
2023-05-10T05:49:20.877Z,3.05
2023-05-10T05:52:42.370Z,2.85
2023-05-10T05:56:02.078Z,3.00
2023-05-10T05:59:11.223Z,2.80
2023-05-10T06:02:23.121Z,2.50
2023-05-10T06:05:30.654Z,3.05
2023-05-10T06:08:39.721Z,2.45
2023-05-10T06:12:02.269Z,3.10
2023-05-10T06:15:24.005Z,2.73
2023-05-10T06:18:33.350Z,2.80
2023-05-10T06:21:49.246Z,2.47
2023-05-10T06:25:23.076Z,2.42
2023-05-10T06:28:46.729Z,2.65
2023-05-10T06:31:55.710Z,2.50
2023-05-10T06:35:18.920Z,2.37
2023-05-10T06:42:44.079Z,2.40
2023-05-10T06:49:28.625Z,2.35
2023-05-10T06:52:44.051Z,2.60
2023-05-10T06:55:49.202Z,2.30
2023-05-10T06:59:08.454Z,2.35
2023-05-10T07:02:17.121Z,2.40
2023-05-10T07:05:29.138Z,2.42
2023-05-10T07:08:42.183Z,2.57
2023-05-10T07:12:08.225Z,2.37
2023-05-10T07:15:23.377Z,2.37
2023-05-10T07:18:45.126Z,2.65
2023-05-10T07:22:18.798Z,2.50
2023-05-10T07:25:46.290Z,2.00
2023-05-10T07:29:05.394Z,2.30
2023-05-10T07:32:16.685Z,2.72
2023-05-10T07:35:35.826Z,2.10
2023-05-10T07:42:13.277Z,2.50
2023-05-10T07:45:24.656Z,2.40
2023-05-10T07:51:57.530Z,2.70
2023-05-10T07:55:12.618Z,2.45
2023-05-10T07:58:25.587Z,1.90
2023-05-10T08:01:44.923Z,2.40
2023-05-10T08:05:13.140Z,2.40
2023-05-10T08:08:46.422Z,1.65
2023-05-10T08:11:51.826Z,1.90
2023-05-10T08:15:21.177Z,2.00
2023-05-10T08:18:36.533Z,1.98
2023-05-10T08:21:48.676Z,2.10
2023-05-10T08:25:17.865Z,1.52
2023-05-10T08:28:23.006Z,1.67
2023-05-10T08:31:50.617Z,4.17
2023-05-10T08:35:03.928Z,2.10
2023-05-10T08:38:58.794Z,1.77
2023-05-10T08:42:17.217Z,1.95
2023-05-10T08:45:29.853Z,1.80
2023-05-10T08:48:47.644Z,1.60
2023-05-10T08:52:08.981Z,1.83
2023-05-10T08:55:46.245Z,1.77
2023-05-10T09:03:15.183Z,1.70
2023-05-10T09:06:24.741Z,1.83
2023-05-10T09:09:49.380Z,2.22
2023-05-10T09:13:07.213Z,1.67
2023-05-10T09:16:22.493Z,1.80
2023-05-10T09:19:54.482Z,1.60
2023-05-10T09:23:07.245Z,1.53
2023-05-10T09:26:25.992Z,1.70
2023-05-10T09:29:44.177Z,1.50
2023-05-10T09:32:50.262Z,1.80
2023-05-10T09:36:13.242Z,1.67
2023-05-10T09:39:18.897Z,1.50
2023-05-10T09:42:23.207Z,1.30
2023-05-10T09:45:36.210Z,1.30
2023-05-10T09:48:47.292Z,1.10
2023-05-10T09:52:06.771Z,1.15
2023-05-10T09:55:17.153Z,1.10
2023-05-10T09:58:23.135Z,1.40
2023-05-10T10:01:29.276Z,1.60
2023-05-10T10:04:36.000Z,1.37
2023-05-10T10:07:44.051Z,1.50
2023-05-10T10:10:48.080Z,1.57
2023-05-10T10:13:54.297Z,1.55
2023-05-10T10:17:08.149Z,1.42
2023-05-10T10:20:16.282Z,1.25
2023-05-10T10:23:19.780Z,1.48
2023-05-10T10:26:23.182Z,1.30
2023-05-10T10:29:53.372Z,1.55
2023-05-10T10:32:58.775Z,1.30
2023-05-10T10:36:04.388Z,1.50
2023-05-10T10:39:15.654Z,1.40
2023-05-10T10:42:53.020Z,1.47
2023-05-10T10:46:34.885Z,1.45
2023-05-10T10:50:18.340Z,1.27
2023-05-10T10:53:23.847Z,1.35
2023-05-10T10:56:28.600Z,1.12
2023-05-10T10:59:36.223Z,1.20
2023-05-10T11:03:00.173Z,1.30
2023-05-10T11:06:05.186Z,1.40
2023-05-10T11:09:12.769Z,1.40
2023-05-10T11:12:22.081Z,1.58
2023-05-10T11:15:34.554Z,1.40
2023-05-10T11:18:44.942Z,1.40
2023-05-10T11:21:58.235Z,1.00
2023-05-10T11:25:07.478Z,1.20
2023-05-10T11:28:13.649Z,1.30
2023-05-10T11:31:21.861Z,1.10
2023-05-10T11:34:30.559Z,1.20
2023-05-10T11:38:04.358Z,1.30
2023-05-10T11:41:13.314Z,1.20
2023-05-10T11:44:22.840Z,1.10
2023-05-10T11:47:26.621Z,1.20
2023-05-10T11:50:37.923Z,1.12
2023-05-10T11:53:46.118Z,1.27
2023-05-10T11:56:53.752Z,1.20
2023-05-10T12:00:00.671Z,1.27
2023-05-10T12:03:04.459Z,1.40
2023-05-10T12:06:10.511Z,1.10
2023-05-10T12:09:13.967Z,1.10
2023-05-10T12:12:33.902Z,1.02
2023-05-10T12:15:46.540Z,1.12
2023-05-10T12:19:03.685Z,1.20
2023-05-10T12:22:08.917Z,1.08
2023-05-10T12:25:15.981Z,1.20
2023-05-10T12:28:21.102Z,1.30
2023-05-10T12:31:59.646Z,1.67
2023-05-10T12:35:07.069Z,1.17
2023-05-10T12:38:34.871Z,1.10
2023-05-10T12:41:52.778Z,1.15
2023-05-10T12:45:01.323Z,1.10
2023-05-10T12:48:03.876Z,1.45
2023-05-10T12:51:16.968Z,1.00
2023-05-10T12:54:21.151Z,1.48
2023-05-10T12:57:33.392Z,1.12
2023-05-10T13:00:40.835Z,1.10
2023-05-10T13:03:52.230Z,1.20
2023-05-10T13:07:01.111Z,1.20
2023-05-10T13:10:17.512Z,1.00
2023-05-10T13:13:34.898Z,1.08
2023-05-10T13:16:39.155Z,1.10
2023-05-10T13:19:50.016Z,1.05
2023-05-10T13:23:05.522Z,1.10
2023-05-10T13:26:08.132Z,1.20
2023-05-10T13:29:36.790Z,0.98
2023-05-10T13:32:39.844Z,0.90
2023-05-10T13:35:59.192Z,1.30
2023-05-10T13:39:13.993Z,0.80
2023-05-10T13:42:35.016Z,1.08
2023-05-10T13:45:46.543Z,0.80
2023-05-10T13:49:03.880Z,1.10
2023-05-10T13:52:11.154Z,1.08
2023-05-10T13:55:23.655Z,1.00
2023-05-10T13:58:35.786Z,0.90
2023-05-10T14:01:40.378Z,0.98
2023-05-10T14:04:45.357Z,1.12
2023-05-10T14:07:52.638Z,1.00
2023-05-10T14:10:59.107Z,1.20
2023-05-10T14:14:05.750Z,1.48
2023-05-10T14:17:17.723Z,1.08
2023-05-10T14:20:20.170Z,1.10
2023-05-10T14:23:27.082Z,1.00
2023-05-10T14:26:42.782Z,1.00
2023-05-10T14:29:52.934Z,0.82
2023-05-10T14:33:03.235Z,1.02
2023-05-10T14:36:17.273Z,1.08
2023-05-10T14:39:25.840Z,0.95
2023-05-10T14:42:37.973Z,1.20
2023-05-10T14:45:48.283Z,0.90
2023-05-10T14:48:54.307Z,1.15
2023-05-10T14:52:26.568Z,0.90
2023-05-10T14:55:41.838Z,0.98
2023-05-10T14:58:49.740Z,1.00
2023-05-10T15:02:13.765Z,1.00
2023-05-10T15:05:20.807Z,1.12
2023-05-10T15:08:24.953Z,1.10
2023-05-10T15:11:44.507Z,1.17
2023-05-10T15:14:49.212Z,1.10
2023-05-10T15:17:51.887Z,1.05
2023-05-10T15:21:06.678Z,1.30
2023-05-10T15:24:24.306Z,0.93
2023-05-10T15:27:36.574Z,0.90
2023-05-10T15:34:09.962Z,1.10
2023-05-10T15:37:19.510Z,1.10
2023-05-10T15:40:24.355Z,1.08
2023-05-10T15:43:27.004Z,1.05
2023-05-10T15:46:35.431Z,0.90
2023-05-10T15:49:49.916Z,1.02
2023-05-10T15:52:58.239Z,0.93
2023-05-10T15:56:07.730Z,1.00
2023-05-10T15:59:26.515Z,0.93
2023-05-10T16:02:42.726Z,0.70
2023-05-10T16:09:28.255Z,0.85
2023-05-10T16:12:35.784Z,1.00
2023-05-10T16:15:52.098Z,1.00
2023-05-10T16:19:04.736Z,1.20
2023-05-10T16:22:27.257Z,1.17
2023-05-10T16:25:49.419Z,0.90
2023-05-10T16:29:02.474Z,1.20
2023-05-10T16:32:12.841Z,0.90
2023-05-10T16:35:21.623Z,1.00
2023-05-10T16:38:37.846Z,1.10
2023-05-10T16:41:45.950Z,1.30
2023-05-10T16:44:54.268Z,1.10
2023-05-10T16:48:09.333Z,1.10
2023-05-10T16:51:29.952Z,1.17
2023-05-10T16:54:38.057Z,0.93
2023-05-10T17:00:57.829Z,1.15
2023-05-10T17:04:06.182Z,1.08
2023-05-10T17:07:21.036Z,1.13
2023-05-10T17:10:26.405Z,1.17
2023-05-10T17:13:36.644Z,1.30
2023-05-10T17:16:52.750Z,0.93
2023-05-10T17:20:05.502Z,1.08
2023-05-10T17:23:12.873Z,1.10
2023-05-10T17:26:18.336Z,1.37
2023-05-10T17:29:29.984Z,1.12
2023-05-10T17:32:36.488Z,1.35
2023-05-10T17:35:52.764Z,1.27
2023-05-10T17:39:03.786Z,1.30
2023-05-10T17:42:10.593Z,1.25
2023-05-10T17:45:27.697Z,1.20
2023-05-10T17:48:33.811Z,1.20
2023-05-10T17:51:36.550Z,1.30
2023-05-10T17:54:44.099Z,1.40
2023-05-10T17:57:51.138Z,1.33
2023-05-10T18:01:00.307Z,1.60
2023-05-10T18:04:09.830Z,1.52
2023-05-10T18:07:28.475Z,1.30
2023-05-10T18:10:37.693Z,1.50
2023-05-10T18:13:50.281Z,1.48
2023-05-10T18:17:00.378Z,1.75
2023-05-10T18:20:06.245Z,1.65
2023-05-10T18:23:27.866Z,2.00
2023-05-10T18:26:54.623Z,2.17
2023-05-10T18:30:02.787Z,1.60
2023-05-10T18:33:07.849Z,1.85
2023-05-10T18:36:17.832Z,1.77
2023-05-10T18:39:45.759Z,2.00
2023-05-10T18:43:15.836Z,2.43
2023-05-10T18:46:33.721Z,2.40
2023-05-10T18:49:36.426Z,3.65
2023-05-10T18:52:51.602Z,4.00
2023-05-10T18:56:10.409Z,3.30
2023-05-10T18:59:22.566Z,2.93
2023-05-10T19:02:34.017Z,3.10
2023-05-10T19:05:51.557Z,2.85
2023-05-10T19:08:58.189Z,2.72
2023-05-10T19:12:10.978Z,2.90
2023-05-10T19:15:17.137Z,2.90
2023-05-10T19:18:22.848Z,2.90
2023-05-10T19:22:08.452Z,2.70
2023-05-10T19:25:20.930Z,2.40
2023-05-10T19:28:32.758Z,2.80
2023-05-10T19:31:44.472Z,4.40
2023-05-10T19:35:01.614Z,4.28
2023-05-10T19:38:53.110Z,3.47
2023-05-10T19:42:04.313Z,2.90
2023-05-10T19:45:25.080Z,2.67
2023-05-10T19:48:31.830Z,2.43
2023-05-10T19:51:47.382Z,2.30
2023-05-10T19:55:00.399Z,2.40
2023-05-10T19:58:13.275Z,2.20
2023-05-10T20:01:28.800Z,2.07
2023-05-10T20:04:53.936Z,2.20
2023-05-10T20:08:02.728Z,2.58
2023-05-10T20:11:14.354Z,2.60
2023-05-10T20:14:31.828Z,2.17
2023-05-10T20:21:10.627Z,2.27
2023-05-10T20:24:23.663Z,2.55
2023-05-10T20:27:33.138Z,2.30
2023-05-10T20:30:45.413Z,2.40
2023-05-10T20:34:10.906Z,2.47
2023-05-10T20:37:51.296Z,2.77
2023-05-10T20:40:59.728Z,2.35
2023-05-10T20:44:07.806Z,2.30
2023-05-10T20:47:25.005Z,2.15
2023-05-10T20:50:37.910Z,2.33
2023-05-10T20:53:42.726Z,1.97
2023-05-10T21:00:27.853Z,2.50
2023-05-10T21:03:36.483Z,2.03
2023-05-10T21:06:46.940Z,2.20
2023-05-10T21:10:00.025Z,2.40
2023-05-10T21:13:30.803Z,2.47
2023-05-10T21:20:04.717Z,2.60
2023-05-10T21:23:20.798Z,2.20
2023-05-10T21:26:29.829Z,2.10
2023-05-10T21:29:37.015Z,2.30
2023-05-10T21:32:46.447Z,2.00
2023-05-10T21:35:56.599Z,2.10
2023-05-10T21:39:34.175Z,2.50
2023-05-10T21:42:49.481Z,1.87
2023-05-10T21:45:55.633Z,2.05
2023-05-10T21:49:08.361Z,2.33
2023-05-10T21:52:22.539Z,2.25
2023-05-10T21:55:30.631Z,2.30
2023-05-10T21:58:34.665Z,2.20
2023-05-10T22:01:46.224Z,2.12
2023-05-10T22:05:00.765Z,2.05
2023-05-10T22:08:14.687Z,2.30
2023-05-10T22:11:27.262Z,2.33
2023-05-10T22:14:53.944Z,2.37
2023-05-10T22:18:07.189Z,1.98
2023-05-10T22:21:31.300Z,1.90
2023-05-10T22:24:44.704Z,2.25
2023-05-10T22:27:58.695Z,2.07
2023-05-10T22:31:38.811Z,2.47
2023-05-10T22:35:04.867Z,2.00
2023-05-10T22:38:18.160Z,2.00
2023-05-10T22:41:41.150Z,2.00
2023-05-10T22:44:45.464Z,2.50
2023-05-10T22:48:07.776Z,2.10
2023-05-10T22:51:25.330Z,2.28
2023-05-10T22:54:58.205Z,2.10
2023-05-10T22:58:19.164Z,2.40
2023-05-10T23:01:33.725Z,2.57
2023-05-10T23:04:40.768Z,2.40
2023-05-10T23:07:56.589Z,2.00
2023-05-10T23:11:06.877Z,2.10
2023-05-10T23:14:21.508Z,2.08
2023-05-10T23:17:25.320Z,2.10
2023-05-10T23:20:41.596Z,2.37
2023-05-10T23:23:44.870Z,2.05
2023-05-10T23:26:51.668Z,2.30
2023-05-10T23:30:31.982Z,2.12
2023-05-10T23:33:38.960Z,2.20
2023-05-10T23:36:48.478Z,2.27
2023-05-10T23:40:02.147Z,2.10
2023-05-10T23:43:09.264Z,2.50
2023-05-10T23:46:31.922Z,2.20
2023-05-10T23:53:05.748Z,2.00
2023-05-10T23:56:26.654Z,2.40
2023-05-10T23:59:34.321Z,2.37
